Startpagina
METAR-TAF:

METAR-TAF

Vliegvelden :

Luchthaven Prins Said Ibrahim

Moroni, Comoren

breedte: 11-32S, lengte: 043-16E, hoogte: 29 m

Actueel weer

Dit bericht is 1 uur en het 10 minuten geleden gemaakt, om 15:00 UTC
Wind 10 kt uit het zuidoosten
Temperatuur 28°C
Vochtigheid 70%
Druk 1013 hPa
Zicht 10 km of meer
Weinig wolken op 2000 ft
Verspreide wolken op 2800 ft

METAR: FMCH 171500Z 13010KT 9999 FEW020 SCT028 28/22 Q1013 NOSIG

Tijdstip: 19:10 (16:10 UTC)

Verwachting

Dit bericht is 5 uur en het 10 minuten geleden gemaakt, om 11:00 UTC
Verwachting geldig van 17 om 12 UTC tot 18 om 18 UTC
Wind 12 kt uit het oosten
Zicht 10 km of meer
Verspreide wolken op 2000 ft
Verspreide wolken op 3000 ft
Kans 30% :
Tijdelijke
van 17 om 12 UTC tot 17 om 18 UTC
Zicht: 4500 m
regenbuien
Wijzigt naar
van 18 om 05 UTC tot 18 om 07 UTC
Wind 10 kt uit het westzuidwesten

TAF: FMCH 171100Z 1712/1818 10012KT 9999 SCT020 SCT030 PROB30 TEMPO 1712/1718 4500 SHRA BECMG 1805/1807 24010KT

Waarnemingen en weersverwachtingen van meer dan 4000 vliegvelden (METAR en TAF).

De beschikbare stations zijn de gele en rode punten op de kaart.

Ga met uw muis naar het station om de naam te zien.

Klik dan om waarnemingen en weersverwachtingen te zien.

kaart wijzigen: klik op de groene knoppen met een zwart kruis om in te zoomen, op de groene knop met een streepje om uit te zoomen of op de groene pijlen voor aangrenzende kaarten.


METAR-TAF: